Terminal Aerodrome Forecast
Issued by NWS

Home | Current Version | Previous Version | Text Only | Print | Product List | Glossary On
Versions: 1 2 3 4 5 6 7 8 9 10 11 12 13 14
000
FTUS45 KTFX 271727
TAFHVR
TAF
KHVR 271727Z 2718/2818 22017G24KT P6SM BKN100
     FM272300 24013KT P6SM BKN100
     FM280200 22008KT P6SM BKN150
     FM281500 28010KT P6SM SCT150=

USA.gov is the U.S. government's official web portal to all federal, state and local government web resources and services.